sensor_id;sensor_type;location;lat;lon;timestamp;P1;durP1;ratioP1;P2;durP2;ratioP2
26512;SDS011;14186;53.822;10.152;2023-07-09T00:03:31;6.75;;;2.42;;
26512;SDS011;14186;53.822;10.152;2023-07-09T00:08:32;5.13;;;2.47;;
26512;SDS011;14186;53.822;10.152;2023-07-09T00:13:33;4.35;;;2.28;;
26512;SDS011;14186;53.822;10.152;2023-07-09T00:18:33;4.82;;;2.30;;
26512;SDS011;14186;53.822;10.152;2023-07-09T00:23:35;4.85;;;2.63;;
26512;SDS011;14186;53.822;10.152;2023-07-09T00:28:35;6.18;;;2.55;;
26512;SDS011;14186;53.822;10.152;2023-07-09T00:33:35;4.22;;;2.17;;
26512;SDS011;14186;53.822;10.152;2023-07-09T00:38:37;10.32;;;3.08;;
26512;SDS011;14186;53.822;10.152;2023-07-09T00:43:37;3.78;;;2.35;;
26512;SDS011;14186;53.822;10.152;2023-07-09T00:48:37;5.60;;;2.60;;
26512;SDS011;14186;53.822;10.152;2023-07-09T00:53:39;4.88;;;2.47;;
26512;SDS011;14186;53.822;10.152;2023-07-09T00:58:40;8.50;;;2.75;;
26512;SDS011;14186;53.822;10.152;2023-07-09T01:03:42;5.82;;;2.50;;
26512;SDS011;14186;53.822;10.152;2023-07-09T01:08:44;6.55;;;2.47;;
26512;SDS011;14186;53.822;10.152;2023-07-09T01:13:45;4.70;;;2.35;;
26512;SDS011;14186;53.822;10.152;2023-07-09T01:18:45;5.32;;;2.70;;
26512;SDS011;14186;53.822;10.152;2023-07-09T01:23:47;4.75;;;2.28;;
26512;SDS011;14186;53.822;10.152;2023-07-09T01:28:49;4.75;;;2.53;;
26512;SDS011;14186;53.822;10.152;2023-07-09T01:33:49;5.38;;;2.33;;
26512;SDS011;14186;53.822;10.152;2023-07-09T01:38:51;7.82;;;2.47;;
26512;SDS011;14186;53.822;10.152;2023-07-09T01:43:51;4.35;;;2.58;;
26512;SDS011;14186;53.822;10.152;2023-07-09T01:48:51;5.82;;;2.90;;
26512;SDS011;14186;53.822;10.152;2023-07-09T01:53:53;4.85;;;2.78;;
26512;SDS011;14186;53.822;10.152;2023-07-09T01:58:53;6.97;;;2.80;;
26512;SDS011;14186;53.822;10.152;2023-07-09T02:03:53;5.63;;;2.72;;
26512;SDS011;14186;53.822;10.152;2023-07-09T02:08:55;5.55;;;3.10;;
26512;SDS011;14186;53.822;10.152;2023-07-09T02:13:55;4.32;;;2.60;;
26512;SDS011;14186;53.822;10.152;2023-07-09T02:18:55;5.43;;;2.50;;
26512;SDS011;14186;53.822;10.152;2023-07-09T02:23:57;5.10;;;2.33;;
26512;SDS011;14186;53.822;10.152;2023-07-09T02:28:57;5.88;;;2.58;;
26512;SDS011;14186;53.822;10.152;2023-07-09T02:33:57;4.10;;;2.55;;
26512;SDS011;14186;53.822;10.152;2023-07-09T02:38:59;5.95;;;2.38;;
26512;SDS011;14186;53.822;10.152;2023-07-09T02:43:59;4.93;;;2.90;;
26512;SDS011;14186;53.822;10.152;2023-07-09T02:48:59;6.70;;;2.58;;
26512;SDS011;14186;53.822;10.152;2023-07-09T02:54:01;4.47;;;2.22;;
26512;SDS011;14186;53.822;10.152;2023-07-09T02:59:02;6.57;;;2.70;;
26512;SDS011;14186;53.822;10.152;2023-07-09T03:04:02;9.70;;;3.42;;
26512;SDS011;14186;53.822;10.152;2023-07-09T03:09:04;4.43;;;2.22;;
26512;SDS011;14186;53.822;10.152;2023-07-09T03:14:04;8.63;;;2.65;;
26512;SDS011;14186;53.822;10.152;2023-07-09T03:19:04;7.13;;;2.47;;
26512;SDS011;14186;53.822;10.152;2023-07-09T03:24:06;3.15;;;2.13;;
26512;SDS011;14186;53.822;10.152;2023-07-09T03:29:07;6.32;;;2.28;;
26512;SDS011;14186;53.822;10.152;2023-07-09T03:34:07;5.93;;;2.83;;
26512;SDS011;14186;53.822;10.152;2023-07-09T03:39:08;3.78;;;2.40;;
26512;SDS011;14186;53.822;10.152;2023-07-09T03:44:09;4.97;;;2.45;;
26512;SDS011;14186;53.822;10.152;2023-07-09T03:49:09;5.50;;;2.30;;
26512;SDS011;14186;53.822;10.152;2023-07-09T03:54:10;7.30;;;2.70;;
26512;SDS011;14186;53.822;10.152;2023-07-09T03:59:11;5.63;;;2.35;;
26512;SDS011;14186;53.822;10.152;2023-07-09T04:04:11;7.95;;;2.70;;
26512;SDS011;14186;53.822;10.152;2023-07-09T04:09:12;6.05;;;2.25;;
26512;SDS011;14186;53.822;10.152;2023-07-09T04:14:12;6.22;;;2.45;;
26512;SDS011;14186;53.822;10.152;2023-07-09T04:19:13;6.28;;;2.28;;
26512;SDS011;14186;53.822;10.152;2023-07-09T04:24:15;3.60;;;2.00;;
26512;SDS011;14186;53.822;10.152;2023-07-09T04:29:15;4.75;;;1.85;;
26512;SDS011;14186;53.822;10.152;2023-07-09T04:34:16;3.78;;;2.10;;
26512;SDS011;14186;53.822;10.152;2023-07-09T04:39:17;3.58;;;2.08;;
26512;SDS011;14186;53.822;10.152;2023-07-09T04:44:17;3.85;;;2.00;;
26512;SDS011;14186;53.822;10.152;2023-07-09T04:49:18;5.10;;;1.90;;
26512;SDS011;14186;53.822;10.152;2023-07-09T04:54:19;4.57;;;2.20;;
26512;SDS011;14186;53.822;10.152;2023-07-09T04:59:19;5.90;;;2.35;;
26512;SDS011;14186;53.822;10.152;2023-07-09T05:04:19;3.88;;;2.10;;
26512;SDS011;14186;53.822;10.152;2023-07-09T05:09:21;3.67;;;1.77;;
26512;SDS011;14186;53.822;10.152;2023-07-09T05:14:21;4.65;;;2.03;;
26512;SDS011;14186;53.822;10.152;2023-07-09T05:19:21;4.10;;;2.05;;
26512;SDS011;14186;53.822;10.152;2023-07-09T05:24:23;3.90;;;1.80;;
26512;SDS011;14186;53.822;10.152;2023-07-09T05:29:24;4.03;;;2.28;;
26512;SDS011;14186;53.822;10.152;2023-07-09T05:34:24;3.53;;;1.80;;
26512;SDS011;14186;53.822;10.152;2023-07-09T05:39:26;2.70;;;2.00;;
26512;SDS011;14186;53.822;10.152;2023-07-09T05:44:26;4.10;;;2.05;;
26512;SDS011;14186;53.822;10.152;2023-07-09T05:49:26;6.22;;;2.03;;
26512;SDS011;14186;53.822;10.152;2023-07-09T05:54:28;4.75;;;2.22;;
26512;SDS011;14186;53.822;10.152;2023-07-09T05:59:28;3.33;;;2.03;;
26512;SDS011;14186;53.822;10.152;2023-07-09T06:04:29;2.70;;;1.80;;
26512;SDS011;14186;53.822;10.152;2023-07-09T06:09:30;4.28;;;2.25;;
26512;SDS011;14186;53.822;10.152;2023-07-09T06:14:31;5.82;;;2.30;;
26512;SDS011;14186;53.822;10.152;2023-07-09T06:19:31;4.38;;;2.40;;
26512;SDS011;14186;53.822;10.152;2023-07-09T06:24:33;5.47;;;2.28;;
26512;SDS011;14186;53.822;10.152;2023-07-09T06:29:33;5.13;;;2.20;;
26512;SDS011;14186;53.822;10.152;2023-07-09T06:34:33;3.53;;;2.13;;
26512;SDS011;14186;53.822;10.152;2023-07-09T06:39:35;4.25;;;2.20;;
26512;SDS011;14186;53.822;10.152;2023-07-09T06:44:35;5.68;;;2.53;;
26512;SDS011;14186;53.822;10.152;2023-07-09T06:49:35;4.03;;;2.30;;
26512;SDS011;14186;53.822;10.152;2023-07-09T06:54:37;4.07;;;2.20;;
26512;SDS011;14186;53.822;10.152;2023-07-09T06:59:37;4.75;;;2.17;;
26512;SDS011;14186;53.822;10.152;2023-07-09T07:04:37;3.72;;;2.28;;
26512;SDS011;14186;53.822;10.152;2023-07-09T07:09:38;4.22;;;2.30;;
26512;SDS011;14186;53.822;10.152;2023-07-09T07:14:39;3.28;;;2.20;;
26512;SDS011;14186;53.822;10.152;2023-07-09T07:19:39;6.80;;;2.70;;
26512;SDS011;14186;53.822;10.152;2023-07-09T07:24:41;3.42;;;2.10;;
26512;SDS011;14186;53.822;10.152;2023-07-09T07:29:41;4.25;;;2.17;;
26512;SDS011;14186;53.822;10.152;2023-07-09T07:34:41;4.50;;;2.35;;
26512;SDS011;14186;53.822;10.152;2023-07-09T07:39:43;3.90;;;2.00;;
26512;SDS011;14186;53.822;10.152;2023-07-09T07:44:43;4.22;;;2.17;;
26512;SDS011;14186;53.822;10.152;2023-07-09T07:49:43;4.03;;;2.20;;
26512;SDS011;14186;53.822;10.152;2023-07-09T07:54:45;5.47;;;2.05;;
26512;SDS011;14186;53.822;10.152;2023-07-09T07:59:45;4.05;;;2.13;;
26512;SDS011;14186;53.822;10.152;2023-07-09T08:04:45;5.03;;;2.13;;
26512;SDS011;14186;53.822;10.152;2023-07-09T08:09:47;3.85;;;2.28;;
26512;SDS011;14186;53.822;10.152;2023-07-09T08:14:47;4.60;;;2.88;;
26512;SDS011;14186;53.822;10.152;2023-07-09T08:19:50;3.80;;;2.40;;
26512;SDS011;14186;53.822;10.152;2023-07-09T08:24:51;4.82;;;2.47;;
26512;SDS011;14186;53.822;10.152;2023-07-09T08:29:52;5.70;;;2.53;;
26512;SDS011;14186;53.822;10.152;2023-07-09T08:34:52;6.18;;;2.75;;
26512;SDS011;14186;53.822;10.152;2023-07-09T08:39:53;6.40;;;2.53;;
26512;SDS011;14186;53.822;10.152;2023-07-09T08:44:59;6.10;;;2.20;;
26512;SDS011;14186;53.822;10.152;2023-07-09T08:50:01;4.15;;;2.42;;
26512;SDS011;14186;53.822;10.152;2023-07-09T08:55:05;5.43;;;2.42;;
26512;SDS011;14186;53.822;10.152;2023-07-09T09:00:12;5.05;;;2.50;;
26512;SDS011;14186;53.822;10.152;2023-07-09T09:05:14;6.03;;;2.50;;
26512;SDS011;14186;53.822;10.152;2023-07-09T09:10:19;4.68;;;2.13;;
26512;SDS011;14186;53.822;10.152;2023-07-09T09:15:21;5.43;;;2.80;;
26512;SDS011;14186;53.822;10.152;2023-07-09T09:20:22;3.20;;;2.10;;
26512;SDS011;14186;53.822;10.152;2023-07-09T09:25:28;4.00;;;2.80;;
26512;SDS011;14186;53.822;10.152;2023-07-09T09:30:29;5.43;;;3.05;;
26512;SDS011;14186;53.822;10.152;2023-07-09T09:35:31;5.68;;;2.90;;
26512;SDS011;14186;53.822;10.152;2023-07-09T09:40:34;3.22;;;2.50;;
26512;SDS011;14186;53.822;10.152;2023-07-09T09:45:36;4.43;;;2.50;;
26512;SDS011;14186;53.822;10.152;2023-07-09T09:50:37;3.90;;;2.75;;
26512;SDS011;14186;53.822;10.152;2023-07-09T09:55:38;5.95;;;2.75;;
26512;SDS011;14186;53.822;10.152;2023-07-09T10:00:39;4.15;;;2.58;;
26512;SDS011;14186;53.822;10.152;2023-07-09T10:05:40;5.28;;;3.30;;
26512;SDS011;14186;53.822;10.152;2023-07-09T10:10:44;5.23;;;3.10;;
26512;SDS011;14186;53.822;10.152;2023-07-09T10:15:48;6.35;;;2.80;;
26512;SDS011;14186;53.822;10.152;2023-07-09T10:20:51;6.15;;;2.85;;
26512;SDS011;14186;53.822;10.152;2023-07-09T10:26:01;5.03;;;3.03;;
26512;SDS011;14186;53.822;10.152;2023-07-09T10:31:07;4.45;;;2.90;;
26512;SDS011;14186;53.822;10.152;2023-07-09T10:36:12;4.63;;;2.67;;
26512;SDS011;14186;53.822;10.152;2023-07-09T10:41:18;5.47;;;3.05;;
26512;SDS011;14186;53.822;10.152;2023-07-09T10:46:20;6.65;;;2.90;;
26512;SDS011;14186;53.822;10.152;2023-07-09T10:51:22;5.78;;;3.13;;
26512;SDS011;14186;53.822;10.152;2023-07-09T10:56:26;5.95;;;3.53;;
26512;SDS011;14186;53.822;10.152;2023-07-09T11:01:28;5.72;;;3.30;;
26512;SDS011;14186;53.822;10.152;2023-07-09T11:06:32;7.37;;;2.87;;
26512;SDS011;14186;53.822;10.152;2023-07-09T11:11:37;4.82;;;3.47;;
26512;SDS011;14186;53.822;10.152;2023-07-09T11:16:40;5.47;;;3.28;;
26512;SDS011;14186;53.822;10.152;2023-07-09T11:21:44;6.03;;;3.20;;
26512;SDS011;14186;53.822;10.152;2023-07-09T11:26:48;6.47;;;3.10;;
26512;SDS011;14186;53.822;10.152;2023-07-09T11:31:48;5.47;;;3.10;;
26512;SDS011;14186;53.822;10.152;2023-07-09T11:36:49;6.75;;;3.60;;
26512;SDS011;14186;53.822;10.152;2023-07-09T11:41:51;5.50;;;3.38;;
26512;SDS011;14186;53.822;10.152;2023-07-09T11:46:54;6.50;;;2.97;;
26512;SDS011;14186;53.822;10.152;2023-07-09T11:51:57;4.63;;;3.60;;
26512;SDS011;14186;53.822;10.152;2023-07-09T11:56:59;6.38;;;3.50;;
26512;SDS011;14186;53.822;10.152;2023-07-09T12:02:00;4.53;;;3.22;;
26512;SDS011;14186;53.822;10.152;2023-07-09T12:07:00;5.03;;;3.53;;
26512;SDS011;14186;53.822;10.152;2023-07-09T12:12:03;5.95;;;3.75;;
26512;SDS011;14186;53.822;10.152;2023-07-09T12:17:07;5.93;;;3.28;;
26512;SDS011;14186;53.822;10.152;2023-07-09T12:22:18;4.70;;;3.28;;
26512;SDS011;14186;53.822;10.152;2023-07-09T12:27:21;4.55;;;3.40;;
26512;SDS011;14186;53.822;10.152;2023-07-09T12:32:22;5.05;;;3.35;;
26512;SDS011;14186;53.822;10.152;2023-07-09T12:37:23;6.13;;;3.47;;
26512;SDS011;14186;53.822;10.152;2023-07-09T12:42:30;5.50;;;4.05;;
26512;SDS011;14186;53.822;10.152;2023-07-09T12:47:31;6.38;;;3.95;;
26512;SDS011;14186;53.822;10.152;2023-07-09T12:52:31;5.35;;;3.53;;
26512;SDS011;14186;53.822;10.152;2023-07-09T12:57:33;5.20;;;3.67;;
26512;SDS011;14186;53.822;10.152;2023-07-09T13:02:37;10.02;;;3.90;;
26512;SDS011;14186;53.822;10.152;2023-07-09T13:07:38;8.10;;;3.80;;
26512;SDS011;14186;53.822;10.152;2023-07-09T13:12:40;7.38;;;3.97;;
26512;SDS011;14186;53.822;10.152;2023-07-09T13:17:41;5.57;;;3.42;;
26512;SDS011;14186;53.822;10.152;2023-07-09T13:22:42;8.32;;;3.92;;
26512;SDS011;14186;53.822;10.152;2023-07-09T13:27:43;5.47;;;4.15;;
26512;SDS011;14186;53.822;10.152;2023-07-09T13:32:44;8.05;;;3.80;;
26512;SDS011;14186;53.822;10.152;2023-07-09T13:37:44;5.85;;;3.65;;
26512;SDS011;14186;53.822;10.152;2023-07-09T13:42:46;7.63;;;4.10;;
26512;SDS011;14186;53.822;10.152;2023-07-09T13:47:47;5.97;;;3.80;;
26512;SDS011;14186;53.822;10.152;2023-07-09T13:52:47;6.68;;;4.03;;
26512;SDS011;14186;53.822;10.152;2023-07-09T13:57:49;5.78;;;3.80;;
26512;SDS011;14186;53.822;10.152;2023-07-09T14:02:49;9.93;;;4.30;;
26512;SDS011;14186;53.822;10.152;2023-07-09T14:07:49;5.93;;;4.07;;
26512;SDS011;14186;53.822;10.152;2023-07-09T14:12:51;5.72;;;4.10;;
26512;SDS011;14186;53.822;10.152;2023-07-09T14:17:51;6.35;;;3.90;;
26512;SDS011;14186;53.822;10.152;2023-07-09T14:22:51;5.75;;;3.53;;
26512;SDS011;14186;53.822;10.152;2023-07-09T14:27:53;8.93;;;4.15;;
26512;SDS011;14186;53.822;10.152;2023-07-09T14:32:53;7.43;;;4.28;;
26512;SDS011;14186;53.822;10.152;2023-07-09T14:37:53;7.30;;;4.00;;
26512;SDS011;14186;53.822;10.152;2023-07-09T14:42:55;6.28;;;3.80;;
26512;SDS011;14186;53.822;10.152;2023-07-09T14:47:55;8.07;;;4.50;;
26512;SDS011;14186;53.822;10.152;2023-07-09T14:52:55;6.95;;;4.40;;
26512;SDS011;14186;53.822;10.152;2023-07-09T14:57:57;6.10;;;4.28;;
26512;SDS011;14186;53.822;10.152;2023-07-09T15:02:57;7.25;;;4.78;;
26512;SDS011;14186;53.822;10.152;2023-07-09T15:07:57;5.57;;;4.00;;
26512;SDS011;14186;53.822;10.152;2023-07-09T15:12:59;8.75;;;4.22;;
26512;SDS011;14186;53.822;10.152;2023-07-09T15:18:00;7.75;;;4.05;;
26512;SDS011;14186;53.822;10.152;2023-07-09T15:23:00;5.22;;;2.88;;
26512;SDS011;14186;53.822;10.152;2023-07-09T15:28:02;5.63;;;2.78;;
26512;SDS011;14186;53.822;10.152;2023-07-09T15:33:02;6.15;;;3.10;;
26512;SDS011;14186;53.822;10.152;2023-07-09T15:38:05;4.38;;;3.20;;
26512;SDS011;14186;53.822;10.152;2023-07-09T15:43:13;7.60;;;3.58;;
26512;SDS011;14186;53.822;10.152;2023-07-09T15:48:18;4.50;;;2.97;;
26512;SDS011;14186;53.822;10.152;2023-07-09T15:53:20;5.80;;;2.80;;
26512;SDS011;14186;53.822;10.152;2023-07-09T15:58:23;7.95;;;3.60;;
26512;SDS011;14186;53.822;10.152;2023-07-09T16:03:24;7.28;;;3.15;;
26512;SDS011;14186;53.822;10.152;2023-07-09T16:08:24;11.45;;;3.30;;
26512;SDS011;14186;53.822;10.152;2023-07-09T16:13:25;5.70;;;3.50;;
26512;SDS011;14186;53.822;10.152;2023-07-09T16:18:26;4.20;;;2.60;;
26512;SDS011;14186;53.822;10.152;2023-07-09T16:23:26;3.22;;;2.35;;
26512;SDS011;14186;53.822;10.152;2023-07-09T16:28:28;7.10;;;2.75;;
26512;SDS011;14186;53.822;10.152;2023-07-09T16:33:28;4.82;;;3.00;;
26512;SDS011;14186;53.822;10.152;2023-07-09T16:38:28;10.10;;;3.03;;
26512;SDS011;14186;53.822;10.152;2023-07-09T16:43:30;10.43;;;3.60;;
26512;SDS011;14186;53.822;10.152;2023-07-09T16:48:30;5.65;;;3.33;;
26512;SDS011;14186;53.822;10.152;2023-07-09T16:53:30;5.88;;;2.83;;
26512;SDS011;14186;53.822;10.152;2023-07-09T16:58:32;9.10;;;2.80;;
26512;SDS011;14186;53.822;10.152;2023-07-09T17:03:33;6.63;;;2.88;;
26512;SDS011;14186;53.822;10.152;2023-07-09T17:08:34;4.13;;;2.50;;
26512;SDS011;14186;53.822;10.152;2023-07-09T17:13:35;8.43;;;2.80;;
26512;SDS011;14186;53.822;10.152;2023-07-09T17:18:35;4.95;;;2.78;;
26512;SDS011;14186;53.822;10.152;2023-07-09T17:23:36;5.10;;;2.47;;
26512;SDS011;14186;53.822;10.152;2023-07-09T17:28:37;7.40;;;3.03;;
26512;SDS011;14186;53.822;10.152;2023-07-09T17:33:37;9.48;;;2.78;;
26512;SDS011;14186;53.822;10.152;2023-07-09T17:38:38;6.53;;;2.90;;
26512;SDS011;14186;53.822;10.152;2023-07-09T17:43:39;6.57;;;2.85;;
26512;SDS011;14186;53.822;10.152;2023-07-09T17:48:39;8.20;;;3.15;;
26512;SDS011;14186;53.822;10.152;2023-07-09T17:53:40;13.40;;;3.72;;
26512;SDS011;14186;53.822;10.152;2023-07-09T17:58:42;15.07;;;4.20;;
26512;SDS011;14186;53.822;10.152;2023-07-09T18:03:42;8.63;;;2.58;;
26512;SDS011;14186;53.822;10.152;2023-07-09T18:08:42;6.85;;;3.15;;
26512;SDS011;14186;53.822;10.152;2023-07-09T18:13:44;5.35;;;2.33;;
26512;SDS011;14186;53.822;10.152;2023-07-09T18:18:44;7.97;;;2.88;;
26512;SDS011;14186;53.822;10.152;2023-07-09T18:23:44;6.20;;;3.10;;
26512;SDS011;14186;53.822;10.152;2023-07-09T18:28:46;5.00;;;2.60;;
26512;SDS011;14186;53.822;10.152;2023-07-09T18:33:46;4.97;;;2.38;;
26512;SDS011;14186;53.822;10.152;2023-07-09T18:38:46;7.07;;;2.67;;
26512;SDS011;14186;53.822;10.152;2023-07-09T18:43:48;4.60;;;2.78;;
26512;SDS011;14186;53.822;10.152;2023-07-09T18:48:49;7.00;;;2.58;;
26512;SDS011;14186;53.822;10.152;2023-07-09T18:53:49;4.60;;;2.45;;
26512;SDS011;14186;53.822;10.152;2023-07-09T18:58:51;6.60;;;2.77;;
26512;SDS011;14186;53.822;10.152;2023-07-09T19:03:51;6.07;;;2.63;;
26512;SDS011;14186;53.822;10.152;2023-07-09T19:08:51;4.68;;;2.65;;
26512;SDS011;14186;53.822;10.152;2023-07-09T19:13:53;7.22;;;2.63;;
26512;SDS011;14186;53.822;10.152;2023-07-09T19:18:53;9.35;;;2.78;;
26512;SDS011;14186;53.822;10.152;2023-07-09T19:23:53;9.05;;;3.10;;
26512;SDS011;14186;53.822;10.152;2023-07-09T19:28:55;5.07;;;2.78;;
26512;SDS011;14186;53.822;10.152;2023-07-09T19:33:55;11.00;;;2.67;;
26512;SDS011;14186;53.822;10.152;2023-07-09T19:38:55;5.85;;;2.78;;
26512;SDS011;14186;53.822;10.152;2023-07-09T19:43:57;7.18;;;2.80;;
26512;SDS011;14186;53.822;10.152;2023-07-09T19:48:57;7.28;;;3.05;;
26512;SDS011;14186;53.822;10.152;2023-07-09T19:53:57;6.85;;;3.10;;
26512;SDS011;14186;53.822;10.152;2023-07-09T19:58:58;12.57;;;3.83;;
26512;SDS011;14186;53.822;10.152;2023-07-09T20:03:59;8.55;;;3.40;;
26512;SDS011;14186;53.822;10.152;2023-07-09T20:08:59;9.27;;;3.20;;
26512;SDS011;14186;53.822;10.152;2023-07-09T20:14:00;7.30;;;3.25;;
26512;SDS011;14186;53.822;10.152;2023-07-09T20:19:01;9.88;;;3.47;;
26512;SDS011;14186;53.822;10.152;2023-07-09T20:24:12;7.72;;;2.92;;
26512;SDS011;14186;53.822;10.152;2023-07-09T20:34:15;11.80;;;3.47;;
26512;SDS011;14186;53.822;10.152;2023-07-09T20:39:16;6.93;;;3.53;;
26512;SDS011;14186;53.822;10.152;2023-07-09T20:44:17;8.32;;;2.80;;
26512;SDS011;14186;53.822;10.152;2023-07-09T20:49:24;8.05;;;4.00;;
26512;SDS011;14186;53.822;10.152;2023-07-09T20:54:24;10.27;;;4.28;;
26512;SDS011;14186;53.822;10.152;2023-07-09T20:59:25;6.22;;;3.47;;
26512;SDS011;14186;53.822;10.152;2023-07-09T21:04:27;9.15;;;4.00;;
26512;SDS011;14186;53.822;10.152;2023-07-09T21:09:28;11.70;;;4.00;;
26512;SDS011;14186;53.822;10.152;2023-07-09T21:14:28;10.88;;;4.28;;
26512;SDS011;14186;53.822;10.152;2023-07-09T21:19:30;14.77;;;5.32;;
26512;SDS011;14186;53.822;10.152;2023-07-09T21:24:31;17.08;;;4.82;;
26512;SDS011;14186;53.822;10.152;2023-07-09T21:29:32;12.35;;;4.90;;
26512;SDS011;14186;53.822;10.152;2023-07-09T21:34:34;16.48;;;5.80;;
26512;SDS011;14186;53.822;10.152;2023-07-09T21:39:34;14.50;;;5.35;;
26512;SDS011;14186;53.822;10.152;2023-07-09T21:44:35;15.10;;;5.28;;
26512;SDS011;14186;53.822;10.152;2023-07-09T21:49:37;17.98;;;5.43;;
26512;SDS011;14186;53.822;10.152;2023-07-09T21:54:37;10.55;;;4.80;;
26512;SDS011;14186;53.822;10.152;2023-07-09T21:59:37;13.52;;;5.15;;
26512;SDS011;14186;53.822;10.152;2023-07-09T22:04:39;17.38;;;5.88;;
26512;SDS011;14186;53.822;10.152;2023-07-09T22:09:39;16.35;;;5.32;;
26512;SDS011;14186;53.822;10.152;2023-07-09T22:14:39;11.80;;;5.78;;
26512;SDS011;14186;53.822;10.152;2023-07-09T22:19:41;16.65;;;7.05;;
26512;SDS011;14186;53.822;10.152;2023-07-09T22:24:41;13.02;;;6.43;;
26512;SDS011;14186;53.822;10.152;2023-07-09T22:29:41;19.40;;;7.97;;
26512;SDS011;14186;53.822;10.152;2023-07-09T22:34:43;13.05;;;6.45;;
26512;SDS011;14186;53.822;10.152;2023-07-09T22:39:43;13.70;;;6.45;;
26512;SDS011;14186;53.822;10.152;2023-07-09T22:44:43;15.40;;;6.72;;
26512;SDS011;14186;53.822;10.152;2023-07-09T22:49:45;17.38;;;7.40;;
26512;SDS011;14186;53.822;10.152;2023-07-09T22:54:45;15.50;;;7.13;;
26512;SDS011;14186;53.822;10.152;2023-07-09T22:59:45;17.75;;;7.00;;
26512;SDS011;14186;53.822;10.152;2023-07-09T23:04:47;15.93;;;7.10;;
26512;SDS011;14186;53.822;10.152;2023-07-09T23:09:47;20.92;;;7.00;;
26512;SDS011;14186;53.822;10.152;2023-07-09T23:14:47;14.82;;;6.88;;
26512;SDS011;14186;53.822;10.152;2023-07-09T23:19:49;15.55;;;6.85;;
26512;SDS011;14186;53.822;10.152;2023-07-09T23:24:49;15.60;;;7.10;;
26512;SDS011;14186;53.822;10.152;2023-07-09T23:29:49;15.73;;;6.75;;
26512;SDS011;14186;53.822;10.152;2023-07-09T23:34:51;13.90;;;7.57;;
26512;SDS011;14186;53.822;10.152;2023-07-09T23:39:51;12.35;;;7.22;;
26512;SDS011;14186;53.822;10.152;2023-07-09T23:44:51;13.55;;;7.65;;
26512;SDS011;14186;53.822;10.152;2023-07-09T23:49:53;15.48;;;7.68;;
26512;SDS011;14186;53.822;10.152;2023-07-09T23:54:53;12.68;;;7.40;;
26512;SDS011;14186;53.822;10.152;2023-07-09T23:59:53;15.27;;;7.53;;
